Maersk Taiki — 9VIG — position and weather

sailwx.info

Track history (hours):
 
Tides and Currents Weather Stations Pressure Air Temp Water Temp Dewpoint Dewpoint Depression Visibility Wind Speed Wind Dir Waves Ship Positions

Maersk Taiki

Last reported at 2018-Apr-21 07:21 UTC. Time now 2018-Apr-22 08:23 UTC.
Position N 36°50' E 012°34'.

Type: Cargo ship. MMSI: 564488000.

Date/timePositionNaut miles runAvg speedWind from/ knotsBaromVisibWave heightAir tempDewpointWater temp
2018-Apr-21 07:21N 36°50' E 012°34'917.4
2018-Apr-21 06:51N 36°48' E 012°45'512.9
2018-Apr-21 06:30N 36°47' E 012°50'817.2
2018-Apr-21 06:01N 36°45' E 013°00'815.2
2018-Apr-21 05:30N 36°44' E 013°10'917.3
2018-Apr-21 05:00N 36°42' E 013°21'916.5
2018-Apr-21 04:29N 36°40' E 013°31'714.5
2018-Apr-21 04:00N 36°38' E 013°40'815.9
2018-Apr-21 03:30N 36°35' E 013°48'816.7
2018-Apr-21 03:00N 36°32' E 013°58'815.0
2018-Apr-21 02:30N 36°30' E 014°07'815.8
2018-Apr-21 02:00N 36°29' E 014°17'815.6
2018-Apr-21 01:30N 36°27' E 014°26'815.3
2018-Apr-21 01:00N 36°25' E 014°35'815.5
2018-Apr-21 00:29N 36°23' E 014°45'815.7
2018-Apr-20 23:58N 36°21' E 014°55'45713.8
2018-Apr-19 14:45N 37°43' E 024°19'  
2018-Apr-16 07:04N 37°44' E 024°19'117.9
2018-Apr-16 07:00N 37°43' E 024°18'917.4
2018-Apr-16 06:27N 37°37' E 024°09'916.5
2018-Apr-16 05:55N 37°36' E 023°58'1117.9
2018-Apr-16 05:19N 37°39' E 023°45'517.4
2018-Apr-16 05:01N 37°43' E 023°41'917.3
2018-Apr-16 04:31N 37°51' E 023°37'511.0
2018-Apr-16 04:00N 37°57' E 023°36'1 1.1
2018-Apr-16 03:29N 37°57' E 023°36'0 0.0
2018-Apr-16 02:26N 37°57' E 023°36'0 0.0
2018-Apr-16 01:59N 37°57' E 023°36'0 0.0
2018-Apr-16 01:26N 37°57' E 023°36'0 0.0
2018-Apr-16 00:59N 37°57' E 023°36'0 0.0
2018-Apr-16 00:11N 37°57' E 023°36'0 0.0
2018-Apr-15 23:59N 37°57' E 023°36'0 0.0
2018-Apr-15 23:29N 37°57' E 023°36'0 0.0
2018-Apr-15 22:59N 37°57' E 023°36'0 0.0
2018-Apr-15 21:41N 37°57' E 023°36'0 0.8
2018-Apr-15 21:30N 37°57' E 023°36'1 2.8
2018-Apr-15 21:00N 37°56' E 023°36'2 4.1
2018-Apr-15 20:30N 37°54' E 023°37'5 9.2
2018-Apr-15 20:00N 37°50' E 023°40'916.7
2018-Apr-15 19:30N 37°42' E 023°44'917.6
2018-Apr-15 19:00N 37°33' E 023°44'918.4
2018-Apr-15 18:30N 37°24' E 023°42'36114.6
2018-Apr-14 17:42N 37°45' E 016°07'316.7
2018-Apr-14 17:30N 37°46' E 016°03'815.7
2018-Apr-14 16:59N 37°49' E 015°53'815.5
2018-Apr-14 16:29N 37°51' E 015°44'815.9
2018-Apr-14 15:58N 37°57' E 015°36'1116.5
2018-Apr-14 15:17N 38°08' E 015°35'413.9
2018-Apr-14 15:00N 38°12' E 015°35'712.3
2018-Apr-14 14:26N 38°18' E 015°39'716.9
2018-Apr-14 14:00N 38°23' E 015°32'916.1
2018-Apr-14 13:29N 38°31' E 015°27'817.5
2018-Apr-14 13:00N 38°36' E 015°19'1017.7
2018-Apr-14 12:28N 38°43' E 015°10'817.6
2018-Apr-14 12:00N 38°48' E 015°02'5917.1
2018-Apr-14 08:35N 39°27' E 014°07'216.9
2018-Apr-14 08:29N 39°28' E 014°05'817.0
2018-Apr-14 08:01N 39°34' E 013°57'816.9
2018-Apr-14 07:30N 39°40' E 013°49'917.0
2018-Apr-14 07:00N 39°46' E 013°41'817.0
2018-Apr-14 06:31N 39°51' E 013°33'917.1
2018-Apr-14 06:01N 39°57' E 013°25'1417.1
2018-Apr-14 05:10N 40°07' E 013°11'316.9
2018-Apr-14 05:00N 40°09' E 013°09'917.0
2018-Apr-14 04:28N 40°15' E 012°60'917.0
2018-Apr-14 03:56N 40°21' E 012°51'717.1
2018-Apr-14 03:30N 40°26' E 012°44'10814.9
2018-Apr-13 20:15N 41°39' E 010°59'312.4
2018-Apr-13 20:00N 41°41' E 010°56'3718.2
2018-Apr-13 17:59N 42°06' E 010°19'5216.4
2018-Apr-13 14:49N 42°56' E 009°59'618.0
2018-Apr-13 14:30N 43°01' E 010°01'918.1
2018-Apr-13 14:00N 43°10' E 010°04'918.0
2018-Apr-13 13:30N 43°19' E 010°08'816.5
2018-Apr-13 13:00N 43°27' E 010°11'611.6
2018-Apr-13 12:30N 43°32' E 010°15'3 6.7
2018-Apr-13 12:00N 43°34' E 010°18'1 1.7
2018-Apr-13 11:29N 43°35' E 010°18'0 0.0
2018-Apr-13 10:59N 43°35' E 010°18'0 0.0
2018-Apr-13 10:29N 43°35' E 010°18'0 0.0
2018-Apr-13 09:59N 43°35' E 010°18'0 0.0
2018-Apr-13 09:29N 43°35' E 010°18'0 0.0
2018-Apr-13 08:59N 43°35' E 010°18'0 0.0
2018-Apr-13 08:29N 43°35' E 010°18'0 0.0
2018-Apr-13 07:59N 43°35' E 010°18'0 0.0
2018-Apr-13 07:29N 43°35' E 010°18'0 0.0
2018-Apr-13 06:53N 43°35' E 010°18'0 0.0
2018-Apr-13 06:29N 43°35' E 010°18'0 0.0
2018-Apr-13 05:59N 43°35' E 010°18'0 0.0
2018-Apr-13 05:29N 43°35' E 010°18'0 0.0
2018-Apr-13 04:59N 43°35' E 010°18'0 0.0
2018-Apr-13 04:29N 43°35' E 010°18'0 0.0
2018-Apr-13 03:59N 43°35' E 010°18'0 0.0
2018-Apr-13 03:29N 43°35' E 010°18'0 0.0
2018-Apr-13 02:59N 43°35' E 010°18'0 0.0
2018-Apr-13 02:29N 43°35' E 010°18'0 0.0
2018-Apr-13 01:59N 43°35' E 010°18'0 0.0
2018-Apr-13 01:29N 43°35' E 010°18'0 0.0
2018-Apr-13 00:59N 43°35' E 010°18'0 0.0
2018-Apr-13 00:29N 43°35' E 010°18'0 0.0
2018-Apr-12 23:59N 43°35' E 010°18'0 0.0
2018-Apr-12 23:29N 43°35' E 010°18'0 0.0
2018-Apr-12 22:59N 43°35' E 010°18'0 0.0
2018-Apr-12 22:29N 43°35' E 010°18'0 0.0
2018-Apr-12 21:59N 43°35' E 010°18'0 0.0
2018-Apr-12 21:29N 43°35' E 010°18'0 0.0
2018-Apr-12 20:59N 43°35' E 010°18'0 0.0
2018-Apr-12 20:23N 43°35' E 010°18'0 0.0
2018-Apr-12 19:59N 43°35' E 010°18'0 0.0
2018-Apr-12 19:29N 43°35' E 010°18'0 0.0
2018-Apr-12 18:56N 43°35' E 010°18'0 0.0
2018-Apr-12 18:29N 43°35' E 010°18'0 0.0
2018-Apr-12 17:59N 43°35' E 010°18'0 0.0
2018-Apr-12 17:29N 43°35' E 010°18'0 0.0
2018-Apr-12 16:59N 43°35' E 010°18'0 0.0
2018-Apr-12 16:29N 43°35' E 010°18'0 0.0
2018-Apr-12 15:59N 43°35' E 010°18'0 0.0
2018-Apr-12 15:29N 43°35' E 010°18'0 0.0
2018-Apr-12 14:59N 43°35' E 010°18'0 0.0
2018-Apr-12 14:29N 43°35' E 010°18'0 0.0
2018-Apr-12 13:59N 43°35' E 010°18'0 0.0
2018-Apr-12 13:29N 43°35' E 010°18'0 0.0
2018-Apr-12 12:59N 43°35' E 010°18'0 0.0
2018-Apr-12 12:29N 43°35' E 010°18'0 0.0
2018-Apr-12 11:59N 43°35' E 010°18'0 0.0
2018-Apr-12 11:29N 43°35' E 010°18'0 0.0
2018-Apr-12 10:59N 43°35' E 010°18'0 0.0
2018-Apr-12 10:26N 43°35' E 010°18'0 0.0
2018-Apr-12 09:59N 43°35' E 010°18'0 0.0
2018-Apr-12 09:29N 43°35' E 010°18'0 0.0
2018-Apr-12 08:59N 43°35' E 010°18'0 0.0
2018-Apr-12 08:29N 43°35' E 010°18'0 0.0
2018-Apr-12 07:59N 43°35' E 010°18'0 0.0
2018-Apr-12 07:29N 43°35' E 010°18'0 0.0
2018-Apr-12 06:59N 43°35' E 010°18'0 0.0
2018-Apr-12 06:26N 43°35' E 010°18'0 0.0
2018-Apr-12 05:56N 43°35' E 010°18'0 0.0
2018-Apr-12 05:29N 43°35' E 010°18'0 0.0
2018-Apr-12 04:59N 43°35' E 010°18'0 0.0
2018-Apr-12 04:27N 43°35' E 010°18'2 3.9
2018-Apr-12 04:00N 43°33' E 010°18'5 9.5
2018-Apr-12 03:30N 43°29' E 010°14'2 4.0
2018-Apr-12 03:00N 43°27' E 010°13'2 4.5
2018-Apr-12 02:30N 43°30' E 010°14'3 5.2
2018-Apr-12 02:00N 43°28' E 010°10'3 6.4
2018-Apr-12 01:30N 43°25' E 010°09'4 8.8
2018-Apr-12 01:00N 43°22' E 010°05'5 9.7
2018-Apr-12 00:30N 43°18' E 010°01'815.3
2018-Apr-12 00:00N 43°16' E 009°51'816.7
2018-Apr-11 23:30N 43°13' E 009°40'816.4
2018-Apr-11 23:00N 43°10' E 009°29'816.2
2018-Apr-11 22:30N 43°08' E 009°19'  
Track history (hours):
 
Tides and Currents Weather Stations Pressure Air Temp Water Temp Dewpoint Dewpoint Depression Visibility Wind Speed Wind Dir Waves Ship Positions

Maersk Taiki

Last reported at 2018-Apr-21 07:21 UTC. Time now 2018-Apr-22 08:23 UTC.
Position N 36°50' E 012°34'.

Type: Cargo ship. MMSI: 564488000.

Date/timePositionNaut miles runAvg speedWind from/ knotsBaromVisibWave heightAir tempDewpointWater temp
2018-Apr-21 07:21N 36°50' E 012°34'917.4
2018-Apr-21 06:51N 36°48' E 012°45'512.9
2018-Apr-21 06:30N 36°47' E 012°50'817.2
2018-Apr-21 06:01N 36°45' E 013°00'815.2
2018-Apr-21 05:30N 36°44' E 013°10'917.3
2018-Apr-21 05:00N 36°42' E 013°21'916.5
2018-Apr-21 04:29N 36°40' E 013°31'714.5
2018-Apr-21 04:00N 36°38' E 013°40'815.9
2018-Apr-21 03:30N 36°35' E 013°48'816.7
2018-Apr-21 03:00N 36°32' E 013°58'815.0
2018-Apr-21 02:30N 36°30' E 014°07'815.8
2018-Apr-21 02:00N 36°29' E 014°17'815.6
2018-Apr-21 01:30N 36°27' E 014°26'815.3
2018-Apr-21 01:00N 36°25' E 014°35'815.5
2018-Apr-21 00:29N 36°23' E 014°45'815.7
2018-Apr-20 23:58N 36°21' E 014°55'45713.8
2018-Apr-19 14:45N 37°43' E 024°19'  
2018-Apr-16 07:04N 37°44' E 024°19'117.9
2018-Apr-16 07:00N 37°43' E 024°18'917.4
2018-Apr-16 06:27N 37°37' E 024°09'916.5
2018-Apr-16 05:55N 37°36' E 023°58'1117.9
2018-Apr-16 05:19N 37°39' E 023°45'517.4
2018-Apr-16 05:01N 37°43' E 023°41'917.3
2018-Apr-16 04:31N 37°51' E 023°37'511.0
2018-Apr-16 04:00N 37°57' E 023°36'1 1.1
2018-Apr-16 03:29N 37°57' E 023°36'0 0.0
2018-Apr-16 02:26N 37°57' E 023°36'0 0.0
2018-Apr-16 01:59N 37°57' E 023°36'0 0.0
2018-Apr-16 01:26N 37°57' E 023°36'0 0.0
2018-Apr-16 00:59N 37°57' E 023°36'0 0.0
2018-Apr-16 00:11N 37°57' E 023°36'0 0.0
2018-Apr-15 23:59N 37°57' E 023°36'0 0.0
2018-Apr-15 23:29N 37°57' E 023°36'0 0.0
2018-Apr-15 22:59N 37°57' E 023°36'0 0.0
2018-Apr-15 21:41N 37°57' E 023°36'0 0.8
2018-Apr-15 21:30N 37°57' E 023°36'1 2.8
2018-Apr-15 21:00N 37°56' E 023°36'2 4.1
2018-Apr-15 20:30N 37°54' E 023°37'5 9.2
2018-Apr-15 20:00N 37°50' E 023°40'916.7
2018-Apr-15 19:30N 37°42' E 023°44'917.6
2018-Apr-15 19:00N 37°33' E 023°44'918.4
2018-Apr-15 18:30N 37°24' E 023°42'36114.6
2018-Apr-14 17:42N 37°45' E 016°07'316.7
2018-Apr-14 17:30N 37°46' E 016°03'815.7
2018-Apr-14 16:59N 37°49' E 015°53'815.5
2018-Apr-14 16:29N 37°51' E 015°44'815.9
2018-Apr-14 15:58N 37°57' E 015°36'1116.5
2018-Apr-14 15:17N 38°08' E 015°35'413.9
2018-Apr-14 15:00N 38°12' E 015°35'712.3
2018-Apr-14 14:26N 38°18' E 015°39'716.9
2018-Apr-14 14:00N 38°23' E 015°32'916.1
2018-Apr-14 13:29N 38°31' E 015°27'817.5
2018-Apr-14 13:00N 38°36' E 015°19'1017.7
2018-Apr-14 12:28N 38°43' E 015°10'817.6
2018-Apr-14 12:00N 38°48' E 015°02'5917.1
2018-Apr-14 08:35N 39°27' E 014°07'216.9
2018-Apr-14 08:29N 39°28' E 014°05'817.0
2018-Apr-14 08:01N 39°34' E 013°57'816.9
2018-Apr-14 07:30N 39°40' E 013°49'917.0
2018-Apr-14 07:00N 39°46' E 013°41'817.0
2018-Apr-14 06:31N 39°51' E 013°33'917.1
2018-Apr-14 06:01N 39°57' E 013°25'1417.1
2018-Apr-14 05:10N 40°07' E 013°11'316.9
2018-Apr-14 05:00N 40°09' E 013°09'917.0
2018-Apr-14 04:28N 40°15' E 012°60'917.0
2018-Apr-14 03:56N 40°21' E 012°51'717.1
2018-Apr-14 03:30N 40°26' E 012°44'10814.9
2018-Apr-13 20:15N 41°39' E 010°59'312.4
2018-Apr-13 20:00N 41°41' E 010°56'3718.2
2018-Apr-13 17:59N 42°06' E 010°19'5216.4
2018-Apr-13 14:49N 42°56' E 009°59'618.0
2018-Apr-13 14:30N 43°01' E 010°01'918.1
2018-Apr-13 14:00N 43°10' E 010°04'918.0
2018-Apr-13 13:30N 43°19' E 010°08'816.5
2018-Apr-13 13:00N 43°27' E 010°11'611.6
2018-Apr-13 12:30N 43°32' E 010°15'3 6.7
2018-Apr-13 12:00N 43°34' E 010°18'1 1.7
2018-Apr-13 11:29N 43°35' E 010°18'0 0.0
2018-Apr-13 10:59N 43°35' E 010°18'0 0.0
2018-Apr-13 10:29N 43°35' E 010°18'0 0.0
2018-Apr-13 09:59N 43°35' E 010°18'0 0.0
2018-Apr-13 09:29N 43°35' E 010°18'0 0.0
2018-Apr-13 08:59N 43°35' E 010°18'0 0.0
2018-Apr-13 08:29N 43°35' E 010°18'0 0.0
2018-Apr-13 07:59N 43°35' E 010°18'0 0.0
2018-Apr-13 07:29N 43°35' E 010°18'0 0.0
2018-Apr-13 06:53N 43°35' E 010°18'0 0.0
2018-Apr-13 06:29N 43°35' E 010°18'0 0.0
2018-Apr-13 05:59N 43°35' E 010°18'0 0.0
2018-Apr-13 05:29N 43°35' E 010°18'0 0.0
2018-Apr-13 04:59N 43°35' E 010°18'0 0.0
2018-Apr-13 04:29N 43°35' E 010°18'0 0.0
2018-Apr-13 03:59N 43°35' E 010°18'0 0.0
2018-Apr-13 03:29N 43°35' E 010°18'0 0.0
2018-Apr-13 02:59N 43°35' E 010°18'0 0.0
2018-Apr-13 02:29N 43°35' E 010°18'0 0.0
2018-Apr-13 01:59N 43°35' E 010°18'0 0.0
2018-Apr-13 01:29N 43°35' E 010°18'0 0.0
2018-Apr-13 00:59N 43°35' E 010°18'0 0.0
2018-Apr-13 00:29N 43°35' E 010°18'0 0.0
2018-Apr-12 23:59N 43°35' E 010°18'0 0.0
2018-Apr-12 23:29N 43°35' E 010°18'0 0.0
2018-Apr-12 22:59N 43°35' E 010°18'0 0.0
2018-Apr-12 22:29N 43°35' E 010°18'0 0.0
2018-Apr-12 21:59N 43°35' E 010°18'0 0.0
2018-Apr-12 21:29N 43°35' E 010°18'0 0.0
2018-Apr-12 20:59N 43°35' E 010°18'0 0.0
2018-Apr-12 20:23N 43°35' E 010°18'0 0.0
2018-Apr-12 19:59N 43°35' E 010°18'0 0.0
2018-Apr-12 19:29N 43°35' E 010°18'0 0.0
2018-Apr-12 18:56N 43°35' E 010°18'0 0.0
2018-Apr-12 18:29N 43°35' E 010°18'0 0.0
2018-Apr-12 17:59N 43°35' E 010°18'0 0.0
2018-Apr-12 17:29N 43°35' E 010°18'0 0.0
2018-Apr-12 16:59N 43°35' E 010°18'0 0.0
2018-Apr-12 16:29N 43°35' E 010°18'0 0.0
2018-Apr-12 15:59N 43°35' E 010°18'0 0.0
2018-Apr-12 15:29N 43°35' E 010°18'0 0.0
2018-Apr-12 14:59N 43°35' E 010°18'0 0.0
2018-Apr-12 14:29N 43°35' E 010°18'0 0.0
2018-Apr-12 13:59N 43°35' E 010°18'0 0.0
2018-Apr-12 13:29N 43°35' E 010°18'0 0.0
2018-Apr-12 12:59N 43°35' E 010°18'0 0.0
2018-Apr-12 12:29N 43°35' E 010°18'0 0.0
2018-Apr-12 11:59N 43°35' E 010°18'0 0.0
2018-Apr-12 11:29N 43°35' E 010°18'0 0.0
2018-Apr-12 10:59N 43°35' E 010°18'0 0.0
2018-Apr-12 10:26N 43°35' E 010°18'0 0.0
2018-Apr-12 09:59N 43°35' E 010°18'0 0.0
2018-Apr-12 09:29N 43°35' E 010°18'0 0.0
2018-Apr-12 08:59N 43°35' E 010°18'0 0.0
2018-Apr-12 08:29N 43°35' E 010°18'0 0.0
2018-Apr-12 07:59N 43°35' E 010°18'0 0.0
2018-Apr-12 07:29N 43°35' E 010°18'0 0.0
2018-Apr-12 06:59N 43°35' E 010°18'0 0.0
2018-Apr-12 06:26N 43°35' E 010°18'0 0.0
2018-Apr-12 05:56N 43°35' E 010°18'0 0.0
2018-Apr-12 05:29N 43°35' E 010°18'0 0.0
2018-Apr-12 04:59N 43°35' E 010°18'0 0.0
2018-Apr-12 04:27N 43°35' E 010°18'2 3.9
2018-Apr-12 04:00N 43°33' E 010°18'5 9.5
2018-Apr-12 03:30N 43°29' E 010°14'2 4.0
2018-Apr-12 03:00N 43°27' E 010°13'2 4.5
2018-Apr-12 02:30N 43°30' E 010°14'3 5.2
2018-Apr-12 02:00N 43°28' E 010°10'3 6.4
2018-Apr-12 01:30N 43°25' E 010°09'4 8.8
2018-Apr-12 01:00N 43°22' E 010°05'5 9.7
2018-Apr-12 00:30N 43°18' E 010°01'815.3
2018-Apr-12 00:00N 43°16' E 009°51'816.7
2018-Apr-11 23:30N 43°13' E 009°40'816.4
2018-Apr-11 23:00N 43°10' E 009°29'816.2
2018-Apr-11 22:30N 43°08' E 009°19'  

Dump ship's entire track history